Terminal Aerodrome Forecast
Issued by NWS

Home | Current Version | Previous Version | Text Only | Print | Product List | Glossary On
Versions: 1 2 3 4 5 6 7 8 9 10 11 12 13 14 15 16 17 18 19
468
FTUS41 KBGM 081743
TAFITH
TAF
KITH 081743Z 0818/0918 27010KT P6SM -SHSN OVC025
      TEMPO 0818/0822 1SM -SHSN OVC015
     FM082200 28010KT P6SM -SHSN SCT025 BKN050
     FM090800 30012G22KT P6SM -SHSN OVC025=

USA.gov is the U.S. government's official web portal to all federal, state and local government web resources and services.